sensor_id;sensor_type;location;lat;lon;timestamp;P1;durP1;ratioP1;P2;durP2;ratioP2
12114;SDS011;6121;49.810;6.418;2023-02-01T00:02:00;803.27;;;737.57;;
12114;SDS011;6121;49.810;6.418;2023-02-01T00:04:27;812.60;;;744.45;;
12114;SDS011;6121;49.810;6.418;2023-02-01T00:06:53;808.22;;;740.28;;
12114;SDS011;6121;49.810;6.418;2023-02-01T00:09:19;814.47;;;747.70;;
12114;SDS011;6121;49.810;6.418;2023-02-01T00:11:44;802.03;;;734.78;;
12114;SDS011;6121;49.810;6.418;2023-02-01T00:14:11;783.80;;;721.05;;
12114;SDS011;6121;49.810;6.418;2023-02-01T00:16:36;817.67;;;746.38;;
12114;SDS011;6121;49.810;6.418;2023-02-01T00:19:07;784.87;;;721.90;;
12114;SDS011;6121;49.810;6.418;2023-02-01T00:21:35;800.43;;;732.20;;
12114;SDS011;6121;49.810;6.418;2023-02-01T00:24:01;796.38;;;732.10;;
12114;SDS011;6121;49.810;6.418;2023-02-01T00:29:03;797.72;;;732.45;;
12114;SDS011;6121;49.810;6.418;2023-02-01T00:31:31;804.42;;;734.38;;
12114;SDS011;6121;49.810;6.418;2023-02-01T00:33:57;797.40;;;731.58;;
12114;SDS011;6121;49.810;6.418;2023-02-01T00:36:23;825.07;;;754.73;;
12114;SDS011;6121;49.810;6.418;2023-02-01T00:38:49;804.80;;;737.70;;
12114;SDS011;6121;49.810;6.418;2023-02-01T00:41:16;802.55;;;737.42;;
12114;SDS011;6121;49.810;6.418;2023-02-01T00:43:43;806.03;;;736.83;;
12114;SDS011;6121;49.810;6.418;2023-02-01T00:46:09;782.70;;;718.13;;
12114;SDS011;6121;49.810;6.418;2023-02-01T00:48:36;786.40;;;717.45;;
12114;SDS011;6121;49.810;6.418;2023-02-01T00:51:03;789.60;;;725.33;;
12114;SDS011;6121;49.810;6.418;2023-02-01T00:53:32;794.38;;;727.55;;
12114;SDS011;6121;49.810;6.418;2023-02-01T00:55:58;799.88;;;733.28;;
12114;SDS011;6121;49.810;6.418;2023-02-01T00:58:24;799.38;;;732.35;;
12114;SDS011;6121;49.810;6.418;2023-02-01T01:01:01;792.72;;;724.95;;
12114;SDS011;6121;49.810;6.418;2023-02-01T01:03:32;788.10;;;721.90;;
12114;SDS011;6121;49.810;6.418;2023-02-01T01:06:00;811.97;;;745.60;;
12114;SDS011;6121;49.810;6.418;2023-02-01T01:08:27;802.55;;;737.30;;
12114;SDS011;6121;49.810;6.418;2023-02-01T01:10:53;809.67;;;741.23;;
12114;SDS011;6121;49.810;6.418;2023-02-01T01:13:19;813.13;;;746.33;;
12114;SDS011;6121;49.810;6.418;2023-02-01T01:15:45;822.20;;;755.78;;
12114;SDS011;6121;49.810;6.418;2023-02-01T01:18:11;815.23;;;751.67;;
12114;SDS011;6121;49.810;6.418;2023-02-01T01:20:37;829.58;;;759.42;;
12114;SDS011;6121;49.810;6.418;2023-02-01T01:23:04;801.05;;;736.95;;
12114;SDS011;6121;49.810;6.418;2023-02-01T01:25:31;816.50;;;747.92;;
12114;SDS011;6121;49.810;6.418;2023-02-01T01:27:57;816.00;;;750.78;;
12114;SDS011;6121;49.810;6.418;2023-02-01T01:30:23;810.65;;;745.38;;
12114;SDS011;6121;49.810;6.418;2023-02-01T01:32:49;823.83;;;754.20;;
12114;SDS011;6121;49.810;6.418;2023-02-01T01:35:17;800.25;;;734.35;;
12114;SDS011;6121;49.810;6.418;2023-02-01T01:37:43;818.40;;;750.03;;
12114;SDS011;6121;49.810;6.418;2023-02-01T01:40:09;805.60;;;739.45;;
12114;SDS011;6121;49.810;6.418;2023-02-01T01:42:42;808.47;;;741.27;;
12114;SDS011;6121;49.810;6.418;2023-02-01T01:45:25;827.03;;;761.00;;
12114;SDS011;6121;49.810;6.418;2023-02-01T01:47:56;839.22;;;771.22;;
12114;SDS011;6121;49.810;6.418;2023-02-01T01:50:25;831.53;;;764.00;;
12114;SDS011;6121;49.810;6.418;2023-02-01T01:52:54;822.20;;;754.00;;
12114;SDS011;6121;49.810;6.418;2023-02-01T01:55:24;810.33;;;744.95;;
12114;SDS011;6121;49.810;6.418;2023-02-01T01:57:56;814.92;;;746.25;;
12114;SDS011;6121;49.810;6.418;2023-02-01T02:00:35;800.60;;;734.13;;
12114;SDS011;6121;49.810;6.418;2023-02-01T02:03:12;801.37;;;734.60;;
12114;SDS011;6121;49.810;6.418;2023-02-01T02:05:39;811.88;;;744.25;;
12114;SDS011;6121;49.810;6.418;2023-02-01T02:08:05;794.27;;;729.87;;
12114;SDS011;6121;49.810;6.418;2023-02-01T02:10:31;809.28;;;741.67;;
12114;SDS011;6121;49.810;6.418;2023-02-01T02:13:16;825.72;;;758.97;;
12114;SDS011;6121;49.810;6.418;2023-02-01T02:15:45;823.58;;;752.50;;
12114;SDS011;6121;49.810;6.418;2023-02-01T02:18:31;804.40;;;740.00;;
12114;SDS011;6121;49.810;6.418;2023-02-01T02:21:25;815.63;;;749.20;;
12114;SDS011;6121;49.810;6.418;2023-02-01T02:24:09;850.57;;;778.23;;
12114;SDS011;6121;49.810;6.418;2023-02-01T02:26:56;836.03;;;765.17;;
12114;SDS011;6121;49.810;6.418;2023-02-01T02:33:16;824.72;;;758.17;;
12114;SDS011;6121;49.810;6.418;2023-02-01T02:36:55;822.78;;;754.70;;
12114;SDS011;6121;49.810;6.418;2023-02-01T02:39:01;834.78;;;766.35;;
12114;SDS011;6121;49.810;6.418;2023-02-01T02:41:44;820.85;;;752.53;;
12114;SDS011;6121;49.810;6.418;2023-02-01T02:45:28;836.13;;;766.33;;
12114;SDS011;6121;49.810;6.418;2023-02-01T02:51:13;809.43;;;741.93;;
12114;SDS011;6121;49.810;6.418;2023-02-01T02:54:10;822.38;;;755.40;;
12114;SDS011;6121;49.810;6.418;2023-02-01T02:57:02;828.53;;;758.22;;
12114;SDS011;6121;49.810;6.418;2023-02-01T02:59:50;824.13;;;756.28;;
12114;SDS011;6121;49.810;6.418;2023-02-01T03:02:36;819.67;;;753.33;;
12114;SDS011;6121;49.810;6.418;2023-02-01T03:05:22;805.75;;;742.00;;
12114;SDS011;6121;49.810;6.418;2023-02-01T03:07:53;827.35;;;757.47;;
12114;SDS011;6121;49.810;6.418;2023-02-01T03:10:24;801.38;;;737.30;;
12114;SDS011;6121;49.810;6.418;2023-02-01T03:13:18;835.10;;;767.45;;
12114;SDS011;6121;49.810;6.418;2023-02-01T03:21:29;831.35;;;762.88;;
12114;SDS011;6121;49.810;6.418;2023-02-01T03:24:05;827.95;;;761.65;;
12114;SDS011;6121;49.810;6.418;2023-02-01T03:26:41;835.72;;;764.47;;
12114;SDS011;6121;49.810;6.418;2023-02-01T03:29:14;809.90;;;745.95;;
12114;SDS011;6121;49.810;6.418;2023-02-01T03:31:44;830.50;;;762.75;;
12114;SDS011;6121;49.810;6.418;2023-02-01T03:34:10;838.15;;;773.80;;
12114;SDS011;6121;49.810;6.418;2023-02-01T03:36:44;845.58;;;773.17;;
12114;SDS011;6121;49.810;6.418;2023-02-01T03:41:56;841.83;;;771.38;;
12114;SDS011;6121;49.810;6.418;2023-02-01T03:44:30;832.40;;;767.17;;
12114;SDS011;6121;49.810;6.418;2023-02-01T03:47:05;836.47;;;766.00;;
12114;SDS011;6121;49.810;6.418;2023-02-01T03:49:42;845.45;;;775.15;;
12114;SDS011;6121;49.810;6.418;2023-02-01T03:52:14;813.10;;;747.08;;
12114;SDS011;6121;49.810;6.418;2023-02-01T03:54:43;819.17;;;749.60;;
12114;SDS011;6121;49.810;6.418;2023-02-01T03:57:12;820.97;;;755.00;;
12114;SDS011;6121;49.810;6.418;2023-02-01T03:59:41;827.47;;;759.78;;
12114;SDS011;6121;49.810;6.418;2023-02-01T04:02:11;819.97;;;754.65;;
12114;SDS011;6121;49.810;6.418;2023-02-01T04:04:37;806.43;;;739.40;;
12114;SDS011;6121;49.810;6.418;2023-02-01T04:07:04;799.70;;;733.60;;
12114;SDS011;6121;49.810;6.418;2023-02-01T04:09:30;807.10;;;742.03;;
12114;SDS011;6121;49.810;6.418;2023-02-01T04:11:56;799.55;;;732.55;;
12114;SDS011;6121;49.810;6.418;2023-02-01T04:14:22;803.93;;;736.53;;
12114;SDS011;6121;49.810;6.418;2023-02-01T04:16:48;816.78;;;748.67;;
12114;SDS011;6121;49.810;6.418;2023-02-01T04:19:13;806.20;;;739.75;;
12114;SDS011;6121;49.810;6.418;2023-02-01T04:21:39;812.17;;;744.45;;
12114;SDS011;6121;49.810;6.418;2023-02-01T04:24:05;820.58;;;752.70;;
12114;SDS011;6121;49.810;6.418;2023-02-01T04:26:31;801.20;;;732.77;;
12114;SDS011;6121;49.810;6.418;2023-02-01T04:28:58;806.00;;;737.75;;
12114;SDS011;6121;49.810;6.418;2023-02-01T04:31:23;797.23;;;730.53;;
12114;SDS011;6121;49.810;6.418;2023-02-01T04:33:52;805.42;;;738.35;;
12114;SDS011;6121;49.810;6.418;2023-02-01T04:36:20;790.08;;;724.42;;
12114;SDS011;6121;49.810;6.418;2023-02-01T04:38:50;812.45;;;744.75;;
12114;SDS011;6121;49.810;6.418;2023-02-01T04:41:17;809.65;;;743.28;;
12114;SDS011;6121;49.810;6.418;2023-02-01T04:43:47;802.72;;;735.17;;
12114;SDS011;6121;49.810;6.418;2023-02-01T04:46:15;799.03;;;733.08;;
12114;SDS011;6121;49.810;6.418;2023-02-01T04:48:41;799.17;;;733.80;;
12114;SDS011;6121;49.810;6.418;2023-02-01T04:51:07;793.07;;;727.47;;
12114;SDS011;6121;49.810;6.418;2023-02-01T04:53:35;793.58;;;727.13;;
12114;SDS011;6121;49.810;6.418;2023-02-01T04:56:01;810.97;;;740.70;;
12114;SDS011;6121;49.810;6.418;2023-02-01T04:58:27;796.00;;;731.83;;
12114;SDS011;6121;49.810;6.418;2023-02-01T05:00:53;806.63;;;738.97;;
12114;SDS011;6121;49.810;6.418;2023-02-01T05:03:19;805.55;;;737.97;;
12114;SDS011;6121;49.810;6.418;2023-02-01T05:05:46;798.25;;;731.65;;
12114;SDS011;6121;49.810;6.418;2023-02-01T05:08:13;796.80;;;730.65;;
12114;SDS011;6121;49.810;6.418;2023-02-01T05:10:39;779.10;;;712.83;;
12114;SDS011;6121;49.810;6.418;2023-02-01T05:13:04;781.97;;;714.60;;
12114;SDS011;6121;49.810;6.418;2023-02-01T05:15:50;792.83;;;727.40;;
12114;SDS011;6121;49.810;6.418;2023-02-01T05:18:16;765.13;;;701.67;;
12114;SDS011;6121;49.810;6.418;2023-02-01T05:20:42;770.97;;;706.10;;
12114;SDS011;6121;49.810;6.418;2023-02-01T05:23:07;795.35;;;727.85;;
12114;SDS011;6121;49.810;6.418;2023-02-01T05:25:33;790.35;;;725.35;;
12114;SDS011;6121;49.810;6.418;2023-02-01T05:27:59;804.23;;;736.23;;
12114;SDS011;6121;49.810;6.418;2023-02-01T05:30:25;777.75;;;714.25;;
12114;SDS011;6121;49.810;6.418;2023-02-01T05:32:52;800.30;;;731.83;;
12114;SDS011;6121;49.810;6.418;2023-02-01T05:35:18;774.70;;;710.90;;
12114;SDS011;6121;49.810;6.418;2023-02-01T05:37:45;804.65;;;737.63;;
12114;SDS011;6121;49.810;6.418;2023-02-01T05:40:11;807.65;;;739.75;;
12114;SDS011;6121;49.810;6.418;2023-02-01T05:42:37;805.53;;;737.45;;
12114;SDS011;6121;49.810;6.418;2023-02-01T05:45:03;801.97;;;733.45;;
12114;SDS011;6121;49.810;6.418;2023-02-01T05:47:30;821.33;;;745.33;;
12114;SDS011;6121;49.810;6.418;2023-02-01T05:49:57;815.13;;;741.58;;
12114;SDS011;6121;49.810;6.418;2023-02-01T05:52:23;790.28;;;721.78;;
12114;SDS011;6121;49.810;6.418;2023-02-01T05:54:48;805.07;;;733.80;;
12114;SDS011;6121;49.810;6.418;2023-02-01T05:57:14;802.60;;;729.60;;
12114;SDS011;6121;49.810;6.418;2023-02-01T05:59:41;810.45;;;739.90;;
12114;SDS011;6121;49.810;6.418;2023-02-01T06:02:10;787.70;;;718.85;;
12114;SDS011;6121;49.810;6.418;2023-02-01T06:04:37;779.15;;;709.30;;
12114;SDS011;6121;49.810;6.418;2023-02-01T06:07:03;815.60;;;739.65;;
12114;SDS011;6121;49.810;6.418;2023-02-01T06:09:30;790.00;;;723.17;;
12114;SDS011;6121;49.810;6.418;2023-02-01T06:11:56;820.95;;;749.80;;
12114;SDS011;6121;49.810;6.418;2023-02-01T06:14:22;875.75;;;805.92;;
12114;SDS011;6121;49.810;6.418;2023-02-01T06:16:49;902.08;;;818.65;;
12114;SDS011;6121;49.810;6.418;2023-02-01T06:19:15;856.77;;;783.00;;
12114;SDS011;6121;49.810;6.418;2023-02-01T06:21:41;843.80;;;773.95;;
12114;SDS011;6121;49.810;6.418;2023-02-01T06:24:07;849.70;;;776.35;;
12114;SDS011;6121;49.810;6.418;2023-02-01T06:26:33;930.47;;;855.10;;
12114;SDS011;6121;49.810;6.418;2023-02-01T06:28:59;895.20;;;820.37;;
12114;SDS011;6121;49.810;6.418;2023-02-01T06:31:25;943.07;;;869.90;;
12114;SDS011;6121;49.810;6.418;2023-02-01T06:33:51;952.28;;;875.72;;
12114;SDS011;6121;49.810;6.418;2023-02-01T06:36:19;882.93;;;810.30;;
12114;SDS011;6121;49.810;6.418;2023-02-01T06:38:46;952.30;;;878.53;;
12114;SDS011;6121;49.810;6.418;2023-02-01T06:41:13;984.38;;;907.58;;
12114;SDS011;6121;49.810;6.418;2023-02-01T06:43:39;986.78;;;908.05;;
12114;SDS011;6121;49.810;6.418;2023-02-01T06:46:06;994.83;;;916.15;;
12114;SDS011;6121;49.810;6.418;2023-02-01T06:48:34;999.30;;;922.42;;
12114;SDS011;6121;49.810;6.418;2023-02-01T06:51:00;1004.10;;;925.13;;
12114;SDS011;6121;49.810;6.418;2023-02-01T06:53:26;983.15;;;908.13;;
12114;SDS011;6121;49.810;6.418;2023-02-01T06:56:01;760.57;;;690.33;;
12114;SDS011;6121;49.810;6.418;2023-02-01T06:58:28;733.22;;;667.85;;
12114;SDS011;6121;49.810;6.418;2023-02-01T07:00:55;767.58;;;695.65;;
12114;SDS011;6121;49.810;6.418;2023-02-01T07:03:22;747.28;;;677.67;;
12114;SDS011;6121;49.810;6.418;2023-02-01T07:05:48;681.25;;;615.50;;
12114;SDS011;6121;49.810;6.418;2023-02-01T07:08:14;734.47;;;656.50;;
12114;SDS011;6121;49.810;6.418;2023-02-01T07:10:40;802.88;;;727.72;;
12114;SDS011;6121;49.810;6.418;2023-02-01T07:13:06;836.38;;;756.03;;
12114;SDS011;6121;49.810;6.418;2023-02-01T07:15:32;831.60;;;762.78;;
12114;SDS011;6121;49.810;6.418;2023-02-01T07:17:58;849.97;;;774.77;;
12114;SDS011;6121;49.810;6.418;2023-02-01T07:20:24;862.97;;;794.13;;
12114;SDS011;6121;49.810;6.418;2023-02-01T07:22:54;832.88;;;763.78;;
12114;SDS011;6121;49.810;6.418;2023-02-01T07:25:22;833.63;;;765.00;;
12114;SDS011;6121;49.810;6.418;2023-02-01T07:27:48;849.65;;;777.47;;
12114;SDS011;6121;49.810;6.418;2023-02-01T07:30:14;852.47;;;779.43;;
12114;SDS011;6121;49.810;6.418;2023-02-01T07:32:40;842.70;;;772.75;;
12114;SDS011;6121;49.810;6.418;2023-02-01T07:35:06;825.88;;;753.30;;
12114;SDS011;6121;49.810;6.418;2023-02-01T07:37:32;845.05;;;775.45;;
12114;SDS011;6121;49.810;6.418;2023-02-01T07:39:58;864.20;;;789.77;;
12114;SDS011;6121;49.810;6.418;2023-02-01T07:42:24;869.67;;;797.28;;
12114;SDS011;6121;49.810;6.418;2023-02-01T07:44:50;856.60;;;783.10;;
12114;SDS011;6121;49.810;6.418;2023-02-01T07:47:15;877.53;;;800.57;;
12114;SDS011;6121;49.810;6.418;2023-02-01T07:49:41;847.78;;;776.40;;
12114;SDS011;6121;49.810;6.418;2023-02-01T07:52:07;858.03;;;782.25;;
12114;SDS011;6121;49.810;6.418;2023-02-01T07:54:33;868.47;;;799.88;;
12114;SDS011;6121;49.810;6.418;2023-02-01T07:56:59;916.72;;;833.47;;
12114;SDS011;6121;49.810;6.418;2023-02-01T07:59:25;853.38;;;782.85;;
12114;SDS011;6121;49.810;6.418;2023-02-01T08:01:50;862.47;;;790.30;;
12114;SDS011;6121;49.810;6.418;2023-02-01T08:04:16;859.83;;;787.08;;
12114;SDS011;6121;49.810;6.418;2023-02-01T08:06:42;818.05;;;744.28;;
12114;SDS011;6121;49.810;6.418;2023-02-01T08:09:08;833.65;;;762.60;;
12114;SDS011;6121;49.810;6.418;2023-02-01T08:11:36;842.33;;;771.40;;
12114;SDS011;6121;49.810;6.418;2023-02-01T08:14:03;839.38;;;767.55;;
12114;SDS011;6121;49.810;6.418;2023-02-01T08:16:29;830.07;;;759.13;;
12114;SDS011;6121;49.810;6.418;2023-02-01T08:18:55;837.17;;;763.03;;
12114;SDS011;6121;49.810;6.418;2023-02-01T08:21:23;839.00;;;767.78;;
12114;SDS011;6121;49.810;6.418;2023-02-01T08:23:52;834.70;;;765.25;;
12114;SDS011;6121;49.810;6.418;2023-02-01T08:26:19;844.20;;;769.83;;
12114;SDS011;6121;49.810;6.418;2023-02-01T08:28:54;822.90;;;752.00;;
12114;SDS011;6121;49.810;6.418;2023-02-01T08:31:23;815.87;;;743.50;;
12114;SDS011;6121;49.810;6.418;2023-02-01T08:33:52;844.30;;;774.05;;
12114;SDS011;6121;49.810;6.418;2023-02-01T08:36:21;847.28;;;774.20;;
12114;SDS011;6121;49.810;6.418;2023-02-01T08:38:47;847.03;;;775.13;;
12114;SDS011;6121;49.810;6.418;2023-02-01T08:41:14;858.30;;;785.88;;
12114;SDS011;6121;49.810;6.418;2023-02-01T08:43:42;873.47;;;799.27;;
12114;SDS011;6121;49.810;6.418;2023-02-01T08:46:08;873.70;;;796.60;;
12114;SDS011;6121;49.810;6.418;2023-02-01T08:48:35;848.78;;;779.28;;
12114;SDS011;6121;49.810;6.418;2023-02-01T08:51:02;851.72;;;775.42;;
12114;SDS011;6121;49.810;6.418;2023-02-01T08:53:33;854.35;;;778.65;;
12114;SDS011;6121;49.810;6.418;2023-02-01T08:55:59;869.35;;;792.47;;
12114;SDS011;6121;49.810;6.418;2023-02-01T08:58:25;843.63;;;772.55;;
12114;SDS011;6121;49.810;6.418;2023-02-01T09:00:51;880.30;;;808.60;;
12114;SDS011;6121;49.810;6.418;2023-02-01T09:03:17;910.15;;;829.95;;
12114;SDS011;6121;49.810;6.418;2023-02-01T09:05:43;896.75;;;820.05;;
12114;SDS011;6121;49.810;6.418;2023-02-01T09:08:10;908.00;;;825.00;;
12114;SDS011;6121;49.810;6.418;2023-02-01T09:10:40;880.72;;;801.97;;
12114;SDS011;6121;49.810;6.418;2023-02-01T09:13:06;882.80;;;802.15;;
12114;SDS011;6121;49.810;6.418;2023-02-01T09:15:34;879.13;;;800.15;;
12114;SDS011;6121;49.810;6.418;2023-02-01T09:17:59;903.78;;;816.22;;
12114;SDS011;6121;49.810;6.418;2023-02-01T09:20:26;887.05;;;801.05;;
12114;SDS011;6121;49.810;6.418;2023-02-01T09:22:54;865.20;;;784.63;;
12114;SDS011;6121;49.810;6.418;2023-02-01T09:25:20;863.17;;;781.15;;
12114;SDS011;6121;49.810;6.418;2023-02-01T09:27:46;895.70;;;810.03;;
12114;SDS011;6121;49.810;6.418;2023-02-01T09:30:12;890.38;;;806.33;;
12114;SDS011;6121;49.810;6.418;2023-02-01T09:32:38;884.60;;;801.17;;
12114;SDS011;6121;49.810;6.418;2023-02-01T09:35:04;870.65;;;789.30;;
12114;SDS011;6121;49.810;6.418;2023-02-01T09:37:31;870.20;;;790.72;;
12114;SDS011;6121;49.810;6.418;2023-02-01T09:39:58;863.67;;;786.75;;
12114;SDS011;6121;49.810;6.418;2023-02-01T09:47:34;874.60;;;791.85;;
12114;SDS011;6121;49.810;6.418;2023-02-01T09:50:11;862.00;;;778.65;;
12114;SDS011;6121;49.810;6.418;2023-02-01T09:52:44;854.85;;;775.80;;
12114;SDS011;6121;49.810;6.418;2023-02-01T09:58:04;842.13;;;759.33;;
12114;SDS011;6121;49.810;6.418;2023-02-01T10:00:41;833.92;;;754.58;;
12114;SDS011;6121;49.810;6.418;2023-02-01T10:03:17;847.07;;;763.40;;
12114;SDS011;6121;49.810;6.418;2023-02-01T10:20:00;995.55;;;910.92;;
12114;SDS011;6121;49.810;6.418;2023-02-01T10:22:50;984.13;;;897.95;;
12114;SDS011;6121;49.810;6.418;2023-02-01T10:25:37;956.60;;;875.78;;
12114;SDS011;6121;49.810;6.418;2023-02-01T10:28:26;964.30;;;881.50;;
12114;SDS011;6121;49.810;6.418;2023-02-01T10:30:56;973.10;;;888.75;;
12114;SDS011;6121;49.810;6.418;2023-02-01T10:33:24;983.58;;;897.88;;
12114;SDS011;6121;49.810;6.418;2023-02-01T10:36:04;980.53;;;893.67;;
12114;SDS011;6121;49.810;6.418;2023-02-01T10:38:42;968.67;;;886.97;;
12114;SDS011;6121;49.810;6.418;2023-02-01T10:41:13;1001.22;;;917.47;;
12114;SDS011;6121;49.810;6.418;2023-02-01T10:43:42;1004.95;;;921.85;;
12114;SDS011;6121;49.810;6.418;2023-02-01T10:46:09;1019.72;;;930.67;;
12114;SDS011;6121;49.810;6.418;2023-02-01T10:48:36;1001.07;;;918.43;;
12114;SDS011;6121;49.810;6.418;2023-02-01T10:53:49;993.60;;;909.57;;
12114;SDS011;6121;49.810;6.418;2023-02-01T10:56:22;968.92;;;884.30;;
12114;SDS011;6121;49.810;6.418;2023-02-01T10:58:49;941.70;;;859.22;;
12114;SDS011;6121;49.810;6.418;2023-02-01T11:01:21;945.15;;;862.47;;
12114;SDS011;6121;49.810;6.418;2023-02-01T11:03:52;918.83;;;838.28;;
12114;SDS011;6121;49.810;6.418;2023-02-01T11:06:21;965.53;;;880.27;;
12114;SDS011;6121;49.810;6.418;2023-02-01T11:11:31;995.23;;;909.20;;
12114;SDS011;6121;49.810;6.418;2023-02-01T11:14:01;981.55;;;898.20;;
12114;SDS011;6121;49.810;6.418;2023-02-01T11:16:43;982.73;;;898.33;;
12114;SDS011;6121;49.810;6.418;2023-02-01T11:19:14;988.90;;;902.33;;
12114;SDS011;6121;49.810;6.418;2023-02-01T11:21:41;973.15;;;885.22;;
12114;SDS011;6121;49.810;6.418;2023-02-01T11:24:22;929.72;;;846.72;;
12114;SDS011;6121;49.810;6.418;2023-02-01T11:26:50;940.33;;;857.17;;
12114;SDS011;6121;49.810;6.418;2023-02-01T11:29:18;975.65;;;887.85;;
12114;SDS011;6121;49.810;6.418;2023-02-01T11:31:49;980.37;;;889.13;;
12114;SDS011;6121;49.810;6.418;2023-02-01T11:34:21;985.53;;;898.40;;
12114;SDS011;6121;49.810;6.418;2023-02-01T11:36:51;1005.25;;;918.63;;
12114;SDS011;6121;49.810;6.418;2023-02-01T11:39:28;1015.70;;;927.78;;
12114;SDS011;6121;49.810;6.418;2023-02-01T11:41:58;1038.80;;;943.95;;
12114;SDS011;6121;49.810;6.418;2023-02-01T11:44:45;1010.80;;;927.88;;
12114;SDS011;6121;49.810;6.418;2023-02-01T11:47:25;1031.45;;;942.63;;
12114;SDS011;6121;49.810;6.418;2023-02-01T11:49:54;971.33;;;891.10;;
12114;SDS011;6121;49.810;6.418;2023-02-01T11:55:14;969.67;;;884.23;;
12114;SDS011;6121;49.810;6.418;2023-02-01T11:57:58;1009.67;;;922.72;;
12114;SDS011;6121;49.810;6.418;2023-02-01T12:05:59;967.35;;;882.80;;
12114;SDS011;6121;49.810;6.418;2023-02-01T12:08:36;999.13;;;917.33;;
12114;SDS011;6121;49.810;6.418;2023-02-01T12:11:30;995.50;;;909.90;;
12114;SDS011;6121;49.810;6.418;2023-02-01T12:24:53;915.23;;;827.67;;
12114;SDS011;6121;49.810;6.418;2023-02-01T12:38:40;965.05;;;880.38;;
12114;SDS011;6121;49.810;6.418;2023-02-01T12:49:01;923.13;;;844.58;;
12114;SDS011;6121;49.810;6.418;2023-02-01T12:51:36;951.75;;;860.60;;
12114;SDS011;6121;49.810;6.418;2023-02-01T12:56:38;948.58;;;861.17;;
12114;SDS011;6121;49.810;6.418;2023-02-01T12:59:28;943.28;;;856.67;;
12114;SDS011;6121;49.810;6.418;2023-02-01T13:02:11;959.20;;;870.45;;
12114;SDS011;6121;49.810;6.418;2023-02-01T13:04:52;919.63;;;844.33;;
12114;SDS011;6121;49.810;6.418;2023-02-01T13:07:55;948.92;;;863.90;;
12114;SDS011;6121;49.810;6.418;2023-02-01T13:13:29;965.08;;;874.33;;
12114;SDS011;6121;49.810;6.418;2023-02-01T13:16:06;949.53;;;867.28;;
12114;SDS011;6121;49.810;6.418;2023-02-01T13:18:41;942.47;;;860.37;;
12114;SDS011;6121;49.810;6.418;2023-02-01T13:21:15;932.67;;;849.13;;
12114;SDS011;6121;49.810;6.418;2023-02-01T13:23:50;955.90;;;867.42;;
12114;SDS011;6121;49.810;6.418;2023-02-01T13:26:18;962.00;;;875.50;;
12114;SDS011;6121;49.810;6.418;2023-02-01T13:28:46;956.95;;;870.83;;
12114;SDS011;6121;49.810;6.418;2023-02-01T13:37:27;984.40;;;898.13;;
12114;SDS011;6121;49.810;6.418;2023-02-01T13:40:18;971.87;;;883.93;;
12114;SDS011;6121;49.810;6.418;2023-02-01T13:42:57;980.75;;;889.17;;
12114;SDS011;6121;49.810;6.418;2023-02-01T13:45:27;986.63;;;896.03;;
12114;SDS011;6121;49.810;6.418;2023-02-01T13:47:57;989.72;;;898.92;;
12114;SDS011;6121;49.810;6.418;2023-02-01T13:53:11;974.27;;;888.20;;
12114;SDS011;6121;49.810;6.418;2023-02-01T13:55:45;968.03;;;879.67;;
12114;SDS011;6121;49.810;6.418;2023-02-01T13:58:36;949.60;;;864.05;;
12114;SDS011;6121;49.810;6.418;2023-02-01T14:03:56;940.17;;;855.80;;
12114;SDS011;6121;49.810;6.418;2023-02-01T14:09:14;930.75;;;847.88;;
12114;SDS011;6121;49.810;6.418;2023-02-01T14:11:48;969.03;;;879.23;;
12114;SDS011;6121;49.810;6.418;2023-02-01T14:19:23;955.53;;;872.33;;
12114;SDS011;6121;49.810;6.418;2023-02-01T14:24:52;955.83;;;873.45;;
12114;SDS011;6121;49.810;6.418;2023-02-01T14:27:26;991.05;;;900.42;;
12114;SDS011;6121;49.810;6.418;2023-02-01T14:30:01;953.67;;;870.40;;
12114;SDS011;6121;49.810;6.418;2023-02-01T14:32:33;1009.45;;;910.38;;
12114;SDS011;6121;49.810;6.418;2023-02-01T14:35:08;975.63;;;889.90;;
12114;SDS011;6121;49.810;6.418;2023-02-01T14:37:58;968.60;;;885.03;;
12114;SDS011;6121;49.810;6.418;2023-02-01T14:40:32;982.47;;;895.10;;
12114;SDS011;6121;49.810;6.418;2023-02-01T14:42:59;975.42;;;891.78;;
12114;SDS011;6121;49.810;6.418;2023-02-01T14:47:55;974.22;;;888.08;;
12114;SDS011;6121;49.810;6.418;2023-02-01T14:50:40;968.95;;;886.53;;
12114;SDS011;6121;49.810;6.418;2023-02-01T14:55:39;996.53;;;911.45;;
12114;SDS011;6121;49.810;6.418;2023-02-01T14:58:06;992.73;;;906.27;;
12114;SDS011;6121;49.810;6.418;2023-02-01T15:00:46;985.80;;;900.40;;
12114;SDS011;6121;49.810;6.418;2023-02-01T15:06:18;966.55;;;884.25;;
12114;SDS011;6121;49.810;6.418;2023-02-01T15:08:49;974.72;;;888.47;;
12114;SDS011;6121;49.810;6.418;2023-02-01T15:11:24;961.25;;;878.30;;
12114;SDS011;6121;49.810;6.418;2023-02-01T15:13:52;989.58;;;905.75;;
12114;SDS011;6121;49.810;6.418;2023-02-01T15:16:23;982.00;;;894.63;;
12114;SDS011;6121;49.810;6.418;2023-02-01T15:19:06;982.60;;;898.83;;
12114;SDS011;6121;49.810;6.418;2023-02-01T15:21:41;1000.30;;;913.88;;
12114;SDS011;6121;49.810;6.418;2023-02-01T15:24:11;994.50;;;908.28;;
12114;SDS011;6121;49.810;6.418;2023-02-01T15:26:46;995.28;;;908.33;;
12114;SDS011;6121;49.810;6.418;2023-02-01T15:29:13;991.58;;;910.63;;
12114;SDS011;6121;49.810;6.418;2023-02-01T15:31:49;1001.65;;;915.00;;
12114;SDS011;6121;49.810;6.418;2023-02-01T15:34:17;1014.45;;;925.90;;
12114;SDS011;6121;49.810;6.418;2023-02-01T15:36:44;997.53;;;912.30;;
12114;SDS011;6121;49.810;6.418;2023-02-01T15:41:55;987.00;;;897.13;;
12114;SDS011;6121;49.810;6.418;2023-02-01T15:44:33;983.00;;;898.67;;
12114;SDS011;6121;49.810;6.418;2023-02-01T15:47:08;987.75;;;905.58;;
12114;SDS011;6121;49.810;6.418;2023-02-01T15:49:43;979.75;;;895.33;;
12114;SDS011;6121;49.810;6.418;2023-02-01T15:52:22;1019.90;;;923.00;;
12114;SDS011;6121;49.810;6.418;2023-02-01T15:54:56;981.25;;;897.50;;
12114;SDS011;6121;49.810;6.418;2023-02-01T15:57:35;991.35;;;902.45;;
12114;SDS011;6121;49.810;6.418;2023-02-01T16:00:24;988.63;;;905.47;;
12114;SDS011;6121;49.810;6.418;2023-02-01T16:02:56;992.25;;;905.70;;
12114;SDS011;6121;49.810;6.418;2023-02-01T16:08:14;985.55;;;901.22;;
12114;SDS011;6121;49.810;6.418;2023-02-01T16:10:44;973.22;;;890.30;;
12114;SDS011;6121;49.810;6.418;2023-02-01T16:13:11;991.60;;;905.63;;
12114;SDS011;6121;49.810;6.418;2023-02-01T16:15:38;997.50;;;911.58;;
12114;SDS011;6121;49.810;6.418;2023-02-01T16:18:05;994.50;;;907.30;;
12114;SDS011;6121;49.810;6.418;2023-02-01T16:20:33;1004.22;;;919.72;;
12114;SDS011;6121;49.810;6.418;2023-02-01T16:23:00;1032.63;;;946.72;;
12114;SDS011;6121;49.810;6.418;2023-02-01T16:25:27;1024.15;;;939.55;;
12114;SDS011;6121;49.810;6.418;2023-02-01T16:27:53;1021.35;;;935.42;;
12114;SDS011;6121;49.810;6.418;2023-02-01T16:30:19;1012.28;;;926.03;;
12114;SDS011;6121;49.810;6.418;2023-02-01T16:32:49;1040.45;;;947.13;;
12114;SDS011;6121;49.810;6.418;2023-02-01T16:35:21;1015.63;;;932.78;;